Historique des stations

Station météo de Saint-Firmin-des-Bois

Altitude de la station : 148 m







Données météorologiques pour le 17/01/2021
Date
Heure
Températures Humidité Point de rosée Vitesse
du vent
Direction Rafales Windchill Pression Pluviométrie
Cumul
Date
Heure
Températures Humidité Point de rosée Vitesse
du vent
Direction Rafales Windchill Pression Pluviométrie
Cumul
17/01/2021 14:146.6 °C88 %5.0 °C2 km/hNNO23 km/h6.7 1026 hPa9 mm
17/01/2021 13:596.3 °C90 %5.0 °C6 km/hN23 km/h5.0 1026 hPa9 mm
17/01/2021 13:446.1 °C90 %4.4 °C2 km/hN23 km/h6.1 1026 hPa9 mm
17/01/2021 13:296.4 °C90 %5.0 °C2 km/hONO23 km/h6.7 1026 hPa9 mm
17/01/2021 13:145.9 °C93 %5.0 °C3 km/hNO23 km/h5.6 1026 hPa9 mm
17/01/2021 12:595.2 °C93 %4.4 °C2 km/hN23 km/h5.0 1026 hPa9 mm
17/01/2021 12:445.0 °C95 %4.4 °C5 km/hNNO23 km/h4.4 1026 hPa8.8 mm
17/01/2021 12:294.8 °C95 %3.9 °C2 km/hN23 km/h5.0 1026 hPa8.6 mm
17/01/2021 12:144.8 °C97 %4.4 °C3 km/hOSO14 km/h4.4 1026 hPa8.2 mm
17/01/2021 11:594.3 °C98 %3.9 °C3 km/hOSO14 km/h3.3 1026 hPa7.8 mm
17/01/2021 11:444.1 °C99 %3.9 °C3 km/hONO10 km/h2.8 1026 hPa7.6 mm
17/01/2021 11:293.8 °C99 %3.9 °C3 km/hO10 km/h2.8 1025 hPa7.4 mm
17/01/2021 11:143.7 °C99 %3.3 °C5 km/hNO10 km/h2.8 1025 hPa7 mm
17/01/2021 10:593.7 °C99 %3.3 °C2 km/hONO10 km/h3.3 1025 hPa6.8 mm
17/01/2021 10:453.4 °C99 %3.3 °C5 km/hONO6 km/h2.2 1025 hPa6.6 mm
17/01/2021 10:303.3 °C99 %3.3 °C-ONO6 km/h3.3 1024 hPa6.4 mm
17/01/2021 10:153.1 °C99 %2.8 °C-ONO6 km/h3.3 1024 hPa6.2 mm
17/01/2021 10:002.8 °C99 %2.8 °C2 km/hONO6 km/h2.2 1024 hPa6 mm
17/01/2021 09:452.6 °C99 %2.2 °C-ONO6 km/h2.8 1024 hPa5.8 mm
17/01/2021 09:302.7 °C99 %2.8 °C-ONO6 km/h2.8 1024 hPa5.8 mm
17/01/2021 09:152.8 °C99 %2.8 °C----1023 hPa5.6 mm
17/01/2021 08:592.9 °C99 %2.8 °C----1023 hPa5.6 mm
17/01/2021 08:442.8 °C99 %2.8 °C----1024 hPa5.4 mm
17/01/2021 08:292.7 °C99 %2.8 °C----1023 hPa5 mm
17/01/2021 08:142.6 °C99 %2.2 °C----1023 hPa4.8 mm
17/01/2021 07:592.4 °C99 %2.2 °C----1023 hPa4.8 mm
17/01/2021 07:442.2 °C99 %2.2 °C----1023 hPa4.4 mm
17/01/2021 07:292.2 °C99 %2.2 °C----1023 hPa4 mm
17/01/2021 07:142.2 °C99 %2.2 °C----1022 hPa3.8 mm
17/01/2021 06:582.2 °C99 %2.2 °C-SO5 km/h2.2 1022 hPa3.6 mm
17/01/2021 06:442.2 °C99 %2.2 °C-SO5 km/h2.2 1022 hPa3.4 mm
17/01/2021 06:292.2 °C99 %2.2 °C-SO5 km/h2.2 1022 hPa3.2 mm
17/01/2021 06:142.2 °C99 %2.2 °C-SO5 km/h2.2 1022 hPa3 mm
17/01/2021 05:592.3 °C99 %2.2 °C-SO5 km/h2.2 1022 hPa3 mm
17/01/2021 05:442.3 °C99 %2.2 °C-SO5 km/h2.2 1022 hPa2.8 mm
17/01/2021 05:292.1 °C99 %2.2 °C-SO5 km/h2.2 1022 hPa2.6 mm
17/01/2021 05:141.9 °C99 %1.7 °C-SO5 km/h1.7 1022 hPa2.6 mm
17/01/2021 05:001.8 °C99 %1.7 °C-SO5 km/h1.7 1022 hPa2.4 mm
17/01/2021 04:451.8 °C99 %1.7 °C-SO5 km/h1.7 1022 hPa2 mm
17/01/2021 04:301.7 °C99 %1.7 °C-SO5 km/h1.7 1022 hPa1.8 mm
17/01/2021 04:151.6 °C99 %1.7 °C-SO5 km/h1.7 1022 hPa1.4 mm
17/01/2021 04:001.6 °C99 %1.7 °C-SO5 km/h1.7 1021 hPa1.2 mm
17/01/2021 03:451.4 °C99 %1.1 °C2 km/hSO5 km/h1.1 1022 hPa1 mm
17/01/2021 03:301.5 °C99 %1.7 °C-SO5 km/h1.7 1021 hPa1 mm
17/01/2021 03:151.4 °C99 %1.1 °C-SO5 km/h1.7 1022 hPa0.8 mm
17/01/2021 03:001.3 °C99 %1.1 °C-SO5 km/h1.1 1022 hPa0.8 mm
17/01/2021 02:451.2 °C99 %1.1 °C-SO5 km/h1.1 1022 hPa0.6 mm
17/01/2021 02:301.3 °C99 %1.1 °C-SO5 km/h1.1 1022 hPa0.6 mm
17/01/2021 02:151.2 °C99 %1.1 °C-SO5 km/h1.1 1022 hPa0.6 mm
17/01/2021 01:591.2 °C99 %1.1 °C-SO5 km/h1.1 1021 hPa0.4 mm
17/01/2021 01:441.1 °C99 %1.1 °C-SO5 km/h1.1 1021 hPa0.4 mm
17/01/2021 01:291.2 °C99 %1.1 °C-SO5 km/h1.1 1022 hPa0.4 mm
17/01/2021 01:141.1 °C99 %1.1 °C-SO5 km/h1.1 1021 hPa0.2 mm
17/01/2021 00:591.1 °C99 %1.1 °C-SO5 km/h1.1 1021 hPa0.2 mm
17/01/2021 00:441.1 °C99 %1.1 °C-SO5 km/h1.1 1021 hPa0.2 mm
17/01/2021 00:291.1 °C98 %0.6 °C3 km/hSO5 km/h0.0 1021 hPa-
17/01/2021 00:141.2 °C99 %1.1 °C-SO5 km/h1.1 1021 hPa-


Minima :

Température : 1.1 °C
Humidité : 88 %
Point de rosée : 0.6 °C
Vent moyen : 2 km/h
Windchill : 0.0
Pression atm. : 1021 hPa
Maxima :

Température : 6.6 °C
Humidité : 99 %
Point de rosée : 5.0 °C
Vent moyen : 6 km/h
Windchill : 6.7
Pression atm. : 1026 hPa
Rafales max : 23 km/h
Cumul de pluie sur 24H : 9 mm

Saint-Firmin-des-Bois est une commune du département Loiret (45).
La station météorologique du réseau de l'association la plus proche de Saint-Firmin-des-Bois est celle de Cudot



Icône Facebook Association Météo Centre Icône Twitter Association Météo Centre Icône Chaîne Youtube Association Météo Centre Icône contact Association Météo Centre Icône Insta Association Météo Centre